Megalon — 3ETX2 — position and weather

sailwx.info

Track history (hours):
 
Tides and Currents Weather Stations Pressure Air Temp Water Temp Dewpoint Dewpoint Depression Visibility Wind Speed Wind Dir Waves Ship Positions

Megalon

Last reported at 2016-Feb-09 18:22 UTC. Time now 2016-Feb-10 08:49 UTC.
Position N 36°10' E 014°44'.

Length 140 m; draft 8.2 m.

Type: Cargo ship. MMSI: 372427000.

Date/timePositionNaut miles runAvg speedWind from/ knotsBaromVisibWave heightAir tempDewpointWater temp
2016-Feb-09 18:22N 36°10' E 014°44'1112.9
2016-Feb-09 17:33N 36°14' E 014°32'1313.2
2016-Feb-09 16:33N 36°18' E 014°16'1313.4
2016-Feb-09 15:33N 36°24' E 014°01'  
2016-Feb-06 14:33N 36°00' W 005°17'1514.2
2016-Feb-06 13:31N 35°56' W 005°34'12012.8
2016-Feb-06 04:08N 36°18' W 008°01'812.9
2016-Feb-06 03:32N 36°20' W 008°10'1312.4
2016-Feb-06 02:29N 36°23' W 008°25'1212.2
2016-Feb-06 01:32N 36°26' W 008°39'1312.9
2016-Feb-06 00:32N 36°30' W 008°55'1313.1
2016-Feb-05 23:32N 36°33' W 009°11'1212.5
2016-Feb-05 22:32N 36°40' W 009°24'1111.2
2016-Feb-05 21:32N 36°48' W 009°33'1312.5
2016-Feb-05 20:32N 37°00' W 009°36'1312.6
2016-Feb-05 19:32N 37°12' W 009°40'1312.6
2016-Feb-05 18:29N 37°25' W 009°44'1212.1
2016-Feb-05 17:31N 37°37' W 009°47'1212.6
2016-Feb-05 16:32N 37°49' W 009°51'5312.7
2016-Feb-05 12:23N 38°40' W 010°05'1213.6
2016-Feb-05 11:31N 38°52' W 010°05'1111.3
2016-Feb-05 10:33N 39°03' W 010°06'1212.4
2016-Feb-05 09:33N 39°15' W 010°06'1413.2
2016-Feb-05 08:31N 39°29' W 010°06'1312.9
2016-Feb-05 07:31N 39°42' W 010°06'1413.0
2016-Feb-05 06:25N 39°56' W 010°06'1212.5
2016-Feb-05 05:28N 40°08' W 010°06'1112.0
2016-Feb-05 04:31N 40°20' W 010°06'1312.9
2016-Feb-05 03:31N 40°33' W 010°06'1312.6
2016-Feb-05 02:28N 40°46' W 010°05'1313.0
2016-Feb-05 01:28N 40°59' W 010°06'1412.5
2016-Feb-05 00:19N 41°13' W 010°06'1012.7
2016-Feb-04 23:30N 41°23' W 010°06'1312.1
2016-Feb-04 22:28N 41°36' W 010°06'1312.8
2016-Feb-04 21:28N 41°49' W 010°06'  
Track history (hours):
 
Tides and Currents Weather Stations Pressure Air Temp Water Temp Dewpoint Dewpoint Depression Visibility Wind Speed Wind Dir Waves Ship Positions

Megalon

Last reported at 2016-Feb-09 18:22 UTC. Time now 2016-Feb-10 08:49 UTC.
Position N 36°10' E 014°44'.

Length 140 m; draft 8.2 m.

Type: Cargo ship. MMSI: 372427000.

Date/timePositionNaut miles runAvg speedWind from/ knotsBaromVisibWave heightAir tempDewpointWater temp
2016-Feb-09 18:22N 36°10' E 014°44'1112.9
2016-Feb-09 17:33N 36°14' E 014°32'1313.2
2016-Feb-09 16:33N 36°18' E 014°16'1313.4
2016-Feb-09 15:33N 36°24' E 014°01'  
2016-Feb-06 14:33N 36°00' W 005°17'1514.2
2016-Feb-06 13:31N 35°56' W 005°34'12012.8
2016-Feb-06 04:08N 36°18' W 008°01'812.9
2016-Feb-06 03:32N 36°20' W 008°10'1312.4
2016-Feb-06 02:29N 36°23' W 008°25'1212.2
2016-Feb-06 01:32N 36°26' W 008°39'1312.9
2016-Feb-06 00:32N 36°30' W 008°55'1313.1
2016-Feb-05 23:32N 36°33' W 009°11'1212.5
2016-Feb-05 22:32N 36°40' W 009°24'1111.2
2016-Feb-05 21:32N 36°48' W 009°33'1312.5
2016-Feb-05 20:32N 37°00' W 009°36'1312.6
2016-Feb-05 19:32N 37°12' W 009°40'1312.6
2016-Feb-05 18:29N 37°25' W 009°44'1212.1
2016-Feb-05 17:31N 37°37' W 009°47'1212.6
2016-Feb-05 16:32N 37°49' W 009°51'5312.7
2016-Feb-05 12:23N 38°40' W 010°05'1213.6
2016-Feb-05 11:31N 38°52' W 010°05'1111.3
2016-Feb-05 10:33N 39°03' W 010°06'1212.4
2016-Feb-05 09:33N 39°15' W 010°06'1413.2
2016-Feb-05 08:31N 39°29' W 010°06'1312.9
2016-Feb-05 07:31N 39°42' W 010°06'1413.0
2016-Feb-05 06:25N 39°56' W 010°06'1212.5
2016-Feb-05 05:28N 40°08' W 010°06'1112.0
2016-Feb-05 04:31N 40°20' W 010°06'1312.9
2016-Feb-05 03:31N 40°33' W 010°06'1312.6
2016-Feb-05 02:28N 40°46' W 010°05'1313.0
2016-Feb-05 01:28N 40°59' W 010°06'1412.5
2016-Feb-05 00:19N 41°13' W 010°06'1012.7
2016-Feb-04 23:30N 41°23' W 010°06'1312.1
2016-Feb-04 22:28N 41°36' W 010°06'1312.8
2016-Feb-04 21:28N 41°49' W 010°06'  

Dump ship's entire track history